This is the latest recevied weather packets stored in our database for station/object W3BRL. If no packets are shown the sender has not sent any weather packets the latest 10 day(s).
| Time | Temp. | Humidity | Pressure | Rain* | Wind** | Luminosity | Snow |
|---|---|---|---|---|---|---|---|
| 1777776108 | 3.33° C | 74% | 1013.9 hPa | 0 mm | - | 0 W/m² | - |
| 1777775804 | 3.33° C | 74% | 1013.9 hPa | 0 mm | - | 0 W/m² | - |
| 1777775501 | 3.33° C | 74% | 1014.1 hPa | 0 mm | - | 0 W/m² | - |
| 1777775197 | 3.33° C | 74% | 1014 hPa | 0 mm | - | 0 W/m² | - |
| 1777774897 | 3.89° C | 73% | 1014 hPa | 0 mm | - | 0 W/m² | - |
| 1777774594 | 3.89° C | 73% | 1014 hPa | 0 mm | - | 0 W/m² | - |
| 1777774291 | 3.89° C | 73% | 1013.8 hPa | 0 mm | - | 0 W/m² | - |
| 1777773988 | 3.89° C | 74% | 1014.1 hPa | 0 mm | - | 0 W/m² | - |
| 1777773686 | 3.89° C | 74% | 1014.1 hPa | 0 mm | - | 0 W/m² | - |
| 1777773382 | 3.89° C | 73% | 1014 hPa | 0 mm | - | 0 W/m² | - |
| 1777772775 | 3.89° C | 73% | 1013.9 hPa | 0 mm | - | 0 W/m² | - |
| 1777772170 | 3.89° C | 73% | 1014 hPa | 0 mm | - | 0 W/m² | - |
| 1777768534 | 4.44° C | 69% | 1013.5 hPa | 0 mm | - | 0 W/m² | - |
| 1777767625 | 5° C | 68% | 1013.4 hPa | 0 mm | - | 1 W/m² | - |
| 1777767019 | 5° C | 67% | 1013.3 hPa | 0 mm | - | 3 W/m² | - |
| 1777762176 | 5.56° C | 67% | 1013 hPa | 0 mm | - | 52 W/m² | - |
| 1777761872 | 5.56° C | 69% | 1013 hPa | 0 mm | - | 60 W/m² | - |
| 1777761568 | 5.56° C | 69% | 1013 hPa | 0 mm | - | 69 W/m² | - |
| 1777761266 | 5.56° C | 69% | 1013.1 hPa | 0 mm | - | 77 W/m² | - |
| 1777760965 | 5.56° C | 68% | 1012.9 hPa | 0 mm | - | 81 W/m² | - |
| 1777760662 | 5.56° C | 69% | 1012.9 hPa | 0 mm | - | 100 W/m² | - |
| 1777760362 | 5.56° C | 68% | 1012.9 hPa | 0 mm | - | 128 W/m² | - |
| 1777760059 | 5.56° C | 69% | 1012.9 hPa | 0 mm | - | 126 W/m² | - |
| 1777759756 | 5.56° C | 69% | 1013 hPa | 0 mm | - | 89 W/m² | - |
| 1777759149 | 5.56° C | 67% | 1012.8 hPa | 0 mm | - | 114 W/m² | - |
* Rain latest hour (hover to see other rain measurements)
** Current wind speed in m/s (hover to see current wind gust speed)